Time;durP1;ratioP1;P1;durP2;ratioP2;P2;SDS_P1;SDS_P2;PMS_P1;PMS_P2;Temp;Humidity;BMP_temperature;BMP_pressure;BME280_temperature;BME280_humidity;BME280_pressure;Samples;Min_cycle;Max_cycle;Signal;HPM_P1;HPM_P2
2024/02/17 00:01:00;;;;;;;3.10;2.80;;;20.20;73.50;;;;;;5020487;28;20440;-75
2024/02/17 00:03:29;;;;;;;2.97;2.67;;;20.10;73.50;;;;;;5029764;28;20992;-75
2024/02/17 00:05:57;;;;;;;4.27;3.00;;;20.10;73.60;;;;;;5027729;28;20443;-76
2024/02/17 00:08:27;;;;;;;2.47;2.37;;;20.10;73.50;;;;;;5028623;28;20491;-75
2024/02/17 00:10:56;;;;;;;2.57;2.37;;;20.10;73.50;;;;;;5029762;28;20474;-76
2024/02/17 00:13:26;;;;;;;3.43;2.97;;;20.10;73.70;;;;;;5029944;28;20458;-75
2024/02/17 00:15:54;;;;;;;3.23;2.63;;;20.10;73.70;;;;;;5030424;28;20519;-76
2024/02/17 00:18:28;;;;;;;7.03;2.27;;;20.10;73.80;;;;;;5060727;22;20516;-76
2024/02/17 00:21:02;;;;;;;3.07;2.30;;;20.10;73.40;;;;;;5034825;28;20450;-76
2024/02/17 00:23:31;;;;;;;4.83;2.90;;;20.10;73.60;;;;;;5036213;28;20434;-76
2024/02/17 00:25:58;;;;;;;3.50;2.70;;;20.00;73.30;;;;;;5034162;28;20447;-77
2024/02/17 00:28:28;;;;;;;2.70;2.60;;;20.00;73.90;;;;;;5053240;28;20533;-76
2024/02/17 00:30:56;;;;;;;3.13;2.93;;;20.00;73.60;;;;;;5060781;28;20477;-76
2024/02/17 00:33:24;;;;;;;3.03;2.60;;;20.00;73.40;;;;;;5059280;28;20441;-76
2024/02/17 00:35:52;;;;;;;3.20;2.90;;;20.00;74.00;;;;;;5061201;28;20434;-76
2024/02/17 00:38:20;;;;;;;4.57;2.60;;;20.00;73.90;;;;;;5058377;28;20522;-76
2024/02/17 00:40:48;;;;;;;3.73;2.73;;;20.00;73.90;;;;;;5054278;28;20458;-76
2024/02/17 00:43:16;;;;;;;3.83;2.90;;;20.00;74.20;;;;;;5046456;28;21088;-76
2024/02/17 00:45:48;;;;;;;3.03;2.83;;;20.00;74.00;;;;;;5059447;28;20497;-76
2024/02/17 00:48:16;;;;;;;4.73;2.60;;;20.00;74.00;;;;;;5055236;28;20474;-76
2024/02/17 00:50:46;;;;;;;3.37;2.47;;;20.00;73.90;;;;;;5056492;28;20494;-76
2024/02/17 00:53:24;;;;;;;2.87;2.53;;;20.00;73.80;;;;;;5059257;28;20465;-76
2024/02/17 00:55:52;;;;;;;2.50;2.33;;;20.00;73.70;;;;;;5053646;28;20511;-75
2024/02/17 00:58:20;;;;;;;3.00;2.80;;;20.00;74.10;;;;;;5055824;28;20571;-76
2024/02/17 01:00:49;;;;;;;2.70;2.50;;;19.90;74.10;;;;;;5056565;28;20467;-76
2024/02/17 01:03:18;;;;;;;3.10;2.90;;;20.00;74.30;;;;;;5054536;28;20450;-76
2024/02/17 01:05:46;;;;;;;2.67;2.47;;;20.00;74.10;;;;;;5061027;28;20803;-76
2024/02/17 01:08:14;;;;;;;2.43;2.27;;;20.00;74.20;;;;;;5055096;28;20462;-76
2024/02/17 01:10:42;;;;;;;4.90;2.73;;;19.90;74.10;;;;;;5048049;28;20479;-76
2024/02/17 01:13:10;;;;;;;2.97;2.70;;;19.90;74.10;;;;;;5048185;28;20447;-76
2024/02/17 01:15:38;;;;;;;3.20;2.87;;;19.90;73.80;;;;;;5052524;28;20467;-76
2024/02/17 01:18:08;;;;;;;2.90;2.73;;;19.90;73.70;;;;;;5053877;28;20466;-76
2024/02/17 01:20:36;;;;;;;4.83;3.00;;;19.90;74.10;;;;;;5055797;28;20441;-75
2024/02/17 01:23:04;;;;;;;2.77;2.30;;;19.90;74.10;;;;;;5047210;28;20443;-75
2024/02/17 01:25:32;;;;;;;6.10;3.00;;;19.90;74.20;;;;;;5055840;28;20438;-76
2024/02/17 01:27:59;;;;;;;4.60;2.77;;;19.90;73.90;;;;;;5059296;28;20524;-76
2024/02/17 01:30:27;;;;;;;3.57;3.10;;;19.90;74.10;;;;;;5052718;28;20488;-75
2024/02/17 01:32:55;;;;;;;3.10;2.90;;;19.90;74.40;;;;;;5046197;28;20439;-75
2024/02/17 01:35:24;;;;;;;3.00;2.80;;;19.90;74.00;;;;;;5045903;28;20438;-75
2024/02/17 01:37:52;;;;;;;3.37;2.60;;;19.90;74.10;;;;;;5059035;28;20474;-75
2024/02/17 01:40:22;;;;;;;3.00;2.80;;;19.90;74.40;;;;;;5058773;28;20541;-75
2024/02/17 01:42:50;;;;;;;2.83;2.63;;;19.90;74.00;;;;;;5071098;28;20447;-75
2024/02/17 01:45:18;;;;;;;2.80;2.60;;;19.90;74.30;;;;;;5053744;28;20445;-75
2024/02/17 01:47:46;;;;;;;3.80;2.70;;;19.90;74.10;;;;;;5058158;28;20450;-75
2024/02/17 01:50:15;;;;;;;2.67;2.47;;;19.80;74.20;;;;;;5041983;28;20964;-75
2024/02/17 01:52:44;;;;;;;2.53;2.43;;;19.80;74.30;;;;;;5056012;28;20471;-75
2024/02/17 01:55:12;;;;;;;3.13;2.63;;;19.80;75.00;;;;;;5042869;28;20443;-75
2024/02/17 01:57:41;;;;;;;3.77;3.00;;;19.80;74.40;;;;;;5052232;28;20573;-75
2024/02/17 02:00:13;;;;;;;2.37;2.27;;;19.80;74.20;;;;;;5050546;28;20501;-75
2024/02/17 02:02:43;;;;;;;3.13;2.80;;;19.80;74.40;;;;;;5050584;28;20448;-75
2024/02/17 02:05:11;;;;;;;3.07;2.80;;;19.80;74.30;;;;;;5055015;28;20439;-75
2024/02/17 02:07:39;;;;;;;5.13;3.07;;;19.80;74.30;;;;;;5059605;28;20458;-76
2024/02/17 02:10:09;;;;;;;2.80;2.30;;;19.80;74.10;;;;;;5045332;28;20497;-76
2024/02/17 02:12:37;;;;;;;5.27;2.83;;;19.80;74.40;;;;;;5056782;28;20524;-75
2024/02/17 02:15:06;;;;;;;5.23;2.80;;;19.70;74.30;;;;;;5049832;28;20453;-75
2024/02/17 02:17:35;;;;;;;3.60;2.77;;;19.80;74.60;;;;;;5043922;28;20467;-75
2024/02/17 02:20:03;;;;;;;3.33;2.80;;;19.80;74.40;;;;;;5047714;28;20863;-75
2024/02/17 02:22:32;;;;;;;3.63;3.17;;;19.80;74.50;;;;;;5054908;28;20454;-75
2024/02/17 02:25:00;;;;;;;4.50;3.10;;;19.70;74.40;;;;;;5061621;28;20545;-75
2024/02/17 02:27:29;;;;;;;3.50;3.20;;;19.70;74.40;;;;;;5043420;28;20547;-75
2024/02/17 02:29:59;;;;;;;4.37;2.70;;;19.80;74.10;;;;;;5057325;28;20450;-75
2024/02/17 02:32:27;;;;;;;3.20;2.80;;;19.70;74.30;;;;;;5051213;28;20474;-75
2024/02/17 02:34:57;;;;;;;4.63;3.20;;;19.70;74.50;;;;;;5054636;28;20490;-75
2024/02/17 02:37:28;;;;;;;3.10;2.90;;;19.70;74.60;;;;;;5058816;28;20496;-75
2024/02/17 02:39:56;;;;;;;4.10;3.00;;;19.70;74.40;;;;;;5051578;28;20470;-75
2024/02/17 02:42:24;;;;;;;3.67;2.90;;;19.70;74.30;;;;;;5047028;28;20488;-75
2024/02/17 02:44:54;;;;;;;13.13;2.30;;;19.70;74.40;;;;;;5052295;28;20443;-75
2024/02/17 02:47:22;;;;;;;3.13;2.77;;;19.70;74.50;;;;;;5051822;28;20481;-75
2024/02/17 02:49:50;;;;;;;3.87;3.27;;;19.70;74.60;;;;;;5058741;28;20470;-75
2024/02/17 02:52:18;;;;;;;3.50;3.13;;;19.70;74.20;;;;;;5043892;28;20471;-77
2024/02/17 02:54:46;;;;;;;3.10;2.70;;;19.70;74.10;;;;;;5055300;28;20526;-75
2024/02/17 02:57:14;;;;;;;2.77;2.57;;;19.60;74.40;;;;;;5055412;28;20516;-75
2024/02/17 02:59:41;;;;;;;2.67;2.47;;;19.60;74.20;;;;;;5053007;28;20445;-76
2024/02/17 03:02:10;;;;;;;4.07;3.10;;;19.60;74.30;;;;;;5055992;28;20431;-76
2024/02/17 03:04:39;;;;;;;2.70;2.50;;;19.60;74.10;;;;;;5051413;28;20537;-76
2024/02/17 03:07:07;;;;;;;3.90;3.43;;;19.60;74.40;;;;;;5051961;28;20463;-76
2024/02/17 03:09:34;;;;;;;3.00;2.80;;;19.60;74.50;;;;;;5058559;28;20461;-76
2024/02/17 03:12:03;;;;;;;4.10;2.90;;;19.60;74.20;;;;;;5055489;28;20474;-76
2024/02/17 03:14:31;;;;;;;4.00;3.07;;;19.60;74.50;;;;;;5060068;28;20442;-76
2024/02/17 03:16:58;;;;;;;3.63;2.53;;;19.60;74.30;;;;;;5055272;28;20466;-76
2024/02/17 03:19:28;;;;;;;3.90;2.80;;;19.60;74.10;;;;;;5054527;28;20447;-76
2024/02/17 03:21:57;;;;;;;3.27;3.00;;;19.60;74.50;;;;;;5044701;28;20935;-76
2024/02/17 03:24:25;;;;;;;3.07;2.87;;;19.60;74.50;;;;;;5052015;28;20431;-75
2024/02/17 03:26:54;;;;;;;2.80;2.43;;;19.60;74.40;;;;;;5046793;28;20466;-76
2024/02/17 03:29:22;;;;;;;2.93;2.73;;;19.60;74.40;;;;;;5051835;28;20451;-75
2024/02/17 03:31:50;;;;;;;2.90;2.70;;;19.50;74.20;;;;;;5049376;28;20499;-75
2024/02/17 03:34:18;;;;;;;2.93;2.73;;;19.50;74.50;;;;;;5045556;28;20493;-75
2024/02/17 03:36:49;;;;;;;3.40;3.10;;;19.50;74.60;;;;;;5050363;28;20466;-75
2024/02/17 03:39:19;;;;;;;3.27;2.80;;;19.50;74.30;;;;;;5057364;28;20449;-75
2024/02/17 03:41:47;;;;;;;2.87;2.63;;;19.50;74.60;;;;;;5050209;28;20453;-76
2024/02/17 03:44:17;;;;;;;3.50;3.20;;;19.50;74.50;;;;;;5057670;28;20442;-76
2024/02/17 03:46:45;;;;;;;3.30;2.50;;;19.50;74.30;;;;;;5055245;28;20463;-76
2024/02/17 03:49:14;;;;;;;3.23;2.93;;;19.50;74.40;;;;;;5058430;28;20443;-75
2024/02/17 03:51:43;;;;;;;3.17;2.87;;;19.50;74.40;;;;;;5054694;28;20933;-76
2024/02/17 03:54:13;;;;;;;3.03;2.67;;;19.50;74.50;;;;;;5052019;28;20454;-75
2024/02/17 03:56:42;;;;;;;4.33;2.80;;;19.50;74.50;;;;;;5054720;28;20980;-75
2024/02/17 03:59:10;;;;;;;13.83;3.17;;;19.50;74.50;;;;;;5053800;28;20439;-76
2024/02/17 04:01:39;;;;;;;2.93;2.57;;;19.50;74.70;;;;;;5054888;28;20465;-75
2024/02/17 04:04:07;;;;;;;3.20;3.00;;;19.50;74.80;;;;;;5062225;28;20508;-75
2024/02/17 04:06:36;;;;;;;4.20;3.40;;;19.50;74.80;;;;;;5053986;28;20506;-75
2024/02/17 04:09:06;;;;;;;3.43;3.13;;;19.50;74.70;;;;;;5062042;28;20447;-75
2024/02/17 04:11:36;;;;;;;3.47;3.17;;;19.50;74.60;;;;;;5059079;28;20453;-75
2024/02/17 04:14:05;;;;;;;9.90;4.00;;;19.50;74.60;;;;;;5058977;28;20494;-75
2024/02/17 04:16:33;;;;;;;3.80;3.50;;;19.50;74.30;;;;;;5050272;28;20456;-75
2024/02/17 04:19:01;;;;;;;5.37;4.27;;;19.50;74.60;;;;;;5062620;28;20473;-75
2024/02/17 04:21:30;;;;;;;4.63;4.17;;;19.40;74.70;;;;;;5059477;28;20518;-75
2024/02/17 04:23:59;;;;;;;5.10;4.40;;;19.40;75.60;;;;;;5064878;28;20461;-76
2024/02/17 04:26:29;;;;;;;4.40;3.90;;;19.50;74.80;;;;;;5055356;28;20448;-76
2024/02/17 04:28:59;;;;;;;6.47;4.60;;;19.50;74.60;;;;;;5056407;28;20429;-76
2024/02/17 04:31:27;;;;;;;6.93;4.73;;;19.50;74.90;;;;;;5059092;28;20453;-76
2024/02/17 04:33:56;;;;;;;5.60;4.50;;;19.50;74.60;;;;;;5053452;28;20529;-76
2024/02/17 04:36:25;;;;;;;5.53;5.03;;;19.50;74.80;;;;;;5049281;28;20447;-76
2024/02/17 04:38:53;;;;;;;6.07;5.30;;;19.50;74.50;;;;;;5059467;28;20434;-76
2024/02/17 04:41:21;;;;;;;5.70;4.30;;;19.40;74.80;;;;;;5054415;28;20452;-76
2024/02/17 04:43:50;;;;;;;6.50;4.90;;;19.50;74.70;;;;;;5052445;28;20449;-76
2024/02/17 04:46:22;;;;;;;7.70;5.17;;;19.40;74.90;;;;;;5060124;28;20431;-75
2024/02/17 04:48:50;;;;;;;5.60;5.07;;;19.40;74.70;;;;;;5052294;28;20446;-75
2024/02/17 04:51:19;;;;;;;7.70;5.30;;;19.50;75.00;;;;;;5048033;28;20443;-76
2024/02/17 04:53:48;;;;;;;5.57;4.97;;;19.40;75.00;;;;;;5054676;28;20516;-75
2024/02/17 04:56:16;;;;;;;5.27;4.70;;;19.40;74.80;;;;;;5060867;28;20546;-75
2024/02/17 04:58:45;;;;;;;5.00;4.50;;;19.40;74.90;;;;;;5052602;28;20446;-76
2024/02/17 05:01:13;;;;;;;6.13;5.00;;;19.40;74.90;;;;;;5056329;28;21006;-75
2024/02/17 05:03:43;;;;;;;6.50;4.97;;;19.40;74.90;;;;;;5050188;28;20510;-75
2024/02/17 05:06:16;;;;;;;5.30;4.80;;;19.40;74.80;;;;;;5057349;28;20446;-75
2024/02/17 05:08:45;;;;;;;4.90;4.40;;;19.40;75.50;;;;;;5057258;28;20451;-75
2024/02/17 05:11:15;;;;;;;5.27;4.20;;;19.40;75.10;;;;;;5057448;28;20526;-76
2024/02/17 05:13:44;;;;;;;5.97;4.60;;;19.30;74.90;;;;;;5050135;28;20528;-76
2024/02/17 05:16:13;;;;;;;5.53;4.47;;;19.30;75.20;;;;;;5059781;28;20442;-76
2024/02/17 05:18:43;;;;;;;4.57;4.07;;;19.30;74.90;;;;;;5056458;28;20585;-76
2024/02/17 05:21:12;;;;;;;7.90;4.37;;;19.30;74.60;;;;;;5059424;28;20446;-75
2024/02/17 05:23:41;;;;;;;5.23;3.90;;;19.30;74.90;;;;;;5056046;28;20443;-75
2024/02/17 05:26:09;;;;;;;4.70;4.00;;;19.30;75.10;;;;;;5058997;28;21011;-75
2024/02/17 05:28:38;;;;;;;4.27;3.87;;;19.30;75.20;;;;;;5056419;28;20471;-76
2024/02/17 05:31:06;;;;;;;4.83;4.33;;;19.30;75.00;;;;;;5059857;28;20446;-75
2024/02/17 05:33:36;;;;;;;10.63;3.93;;;19.30;74.60;;;;;;5055819;28;20542;-75
2024/02/17 05:36:07;;;;;;;6.50;4.30;;;19.30;74.80;;;;;;5058004;28;20474;-75
2024/02/17 05:38:35;;;;;;;4.23;3.50;;;19.30;74.90;;;;;;5057774;28;20477;-76
2024/02/17 05:41:04;;;;;;;4.47;4.07;;;19.30;74.90;;;;;;5040666;28;20481;-76
2024/02/17 05:43:32;;;;;;;4.10;3.70;;;19.30;75.10;;;;;;5035023;28;20444;-76
2024/02/17 05:46:01;;;;;;;4.07;3.63;;;19.30;74.90;;;;;;5043466;28;20465;-76
2024/02/17 05:48:30;;;;;;;4.17;3.77;;;19.30;74.80;;;;;;5045409;28;20467;-76
2024/02/17 05:50:59;;;;;;;4.00;3.60;;;19.30;74.90;;;;;;5050308;28;20478;-76
2024/02/17 05:53:29;;;;;;;4.43;4.03;;;19.30;75.20;;;;;;5058008;28;20470;-76
2024/02/17 05:55:59;;;;;;;4.30;3.87;;;19.30;74.80;;;;;;5055025;28;20457;-76
2024/02/17 05:58:28;;;;;;;3.47;3.17;;;19.20;75.10;;;;;;5052990;28;20459;-76
2024/02/17 06:01:00;;;;;;;4.07;3.67;;;19.20;75.10;;;;;;5048046;28;20446;-75
2024/02/17 06:03:29;;;;;;;3.83;3.40;;;19.20;75.10;;;;;;5046811;28;20447;-76
2024/02/17 06:05:57;;;;;;;4.80;3.70;;;19.20;75.10;;;;;;5053286;28;20446;-75
2024/02/17 06:08:25;;;;;;;4.23;3.40;;;19.20;74.90;;;;;;5058436;28;20473;-75
2024/02/17 06:10:56;;;;;;;3.83;3.50;;;19.20;74.80;;;;;;5050155;28;20542;-76
2024/02/17 06:13:25;;;;;;;4.10;3.73;;;19.20;74.90;;;;;;5053319;28;20467;-76
2024/02/17 06:15:53;;;;;;;3.80;3.20;;;19.20;75.00;;;;;;5038878;28;20471;-76
2024/02/17 06:21:14;;;;;;;4.23;3.57;;;19.20;75.20;;;;;;5047250;28;20457;-75
2024/02/17 06:23:43;;;;;;;3.50;3.20;;;19.10;74.80;;;;;;5051909;28;20433;-74
2024/02/17 06:26:22;;;;;;;3.30;3.07;;;19.10;74.80;;;;;;5051482;28;20469;-74
2024/02/17 06:28:50;;;;;;;3.63;3.30;;;19.10;74.90;;;;;;5063386;28;20449;-75
2024/02/17 06:31:18;;;;;;;4.90;3.70;;;19.10;75.00;;;;;;5071275;28;20516;-75
2024/02/17 06:33:46;;;;;;;3.17;2.87;;;19.10;75.00;;;;;;5071685;28;20473;-76
2024/02/17 06:36:14;;;;;;;3.07;2.87;;;19.10;74.80;;;;;;5067840;28;20438;-76
2024/02/17 06:38:42;;;;;;;3.27;3.00;;;19.10;75.10;;;;;;5077258;28;20449;-77
2024/02/17 06:41:10;;;;;;;3.47;3.17;;;19.10;74.60;;;;;;5072091;28;20445;-74
2024/02/17 06:43:39;;;;;;;3.83;2.90;;;19.10;75.00;;;;;;5071758;28;20519;-77
2024/02/17 06:46:07;;;;;;;3.07;2.87;;;19.00;74.90;;;;;;5071480;28;20440;-77
2024/02/17 06:48:36;;;;;;;3.37;3.07;;;19.00;74.80;;;;;;5071643;28;20468;-76
2024/02/17 06:51:04;;;;;;;3.03;2.70;;;19.10;74.80;;;;;;5065758;28;20941;-76
2024/02/17 06:53:33;;;;;;;2.70;2.43;;;19.00;74.50;;;;;;5064980;28;20446;-76
2024/02/17 06:56:01;;;;;;;3.03;2.83;;;19.00;74.80;;;;;;5071350;28;20441;-76
2024/02/17 06:58:29;;;;;;;3.00;2.80;;;19.10;74.50;;;;;;5071149;28;20488;-76
2024/02/17 07:00:58;;;;;;;2.87;2.67;;;19.00;75.20;;;;;;5059792;28;20537;-76
2024/02/17 07:03:26;;;;;;;2.80;2.60;;;19.00;74.60;;;;;;5063545;28;20446;-77
2024/02/17 07:05:55;;;;;;;3.30;2.57;;;19.00;74.70;;;;;;5068071;28;20433;-76
2024/02/17 07:08:26;;;;;;;3.13;2.80;;;19.00;74.40;;;;;;5070461;28;20454;-76
2024/02/17 07:10:54;;;;;;;7.10;2.70;;;19.00;74.30;;;;;;5070520;28;20523;-76
2024/02/17 07:13:22;;;;;;;2.90;2.70;;;19.00;74.60;;;;;;5071467;28;20460;-77
2024/02/17 07:15:50;;;;;;;2.73;2.53;;;19.00;74.80;;;;;;5064917;28;20531;-77
2024/02/17 07:18:20;;;;;;;2.37;2.27;;;19.00;74.70;;;;;;5066991;28;20484;-76
2024/02/17 07:20:49;;;;;;;2.60;2.40;;;19.00;74.70;;;;;;5071501;28;20465;-77
2024/02/17 07:23:23;;;;;;;2.30;2.10;;;19.00;74.50;;;;;;5060484;28;20441;-76
2024/02/17 07:25:52;;;;;;;3.10;2.90;;;19.00;74.20;;;;;;5071710;28;20449;-76
2024/02/17 07:28:20;;;;;;;2.43;2.33;;;19.00;74.30;;;;;;5071543;28;20497;-76
2024/02/17 07:30:49;;;;;;;2.80;2.60;;;19.10;74.10;;;;;;5072052;28;20453;-76
2024/02/17 07:33:18;;;;;;;2.30;2.20;;;19.00;74.10;;;;;;5072391;28;20442;-76
2024/02/17 07:35:49;;;;;;;2.63;2.40;;;19.00;74.30;;;;;;5066315;28;20477;-75
2024/02/17 07:38:18;;;;;;;3.20;2.50;;;19.10;74.10;;;;;;5070207;28;20537;-76
2024/02/17 07:40:46;;;;;;;5.40;2.70;;;19.10;74.20;;;;;;5070666;28;20892;-76
2024/02/17 07:43:14;;;;;;;2.43;2.20;;;19.00;73.80;;;;;;5071149;28;20472;-77
2024/02/17 07:45:42;;;;;;;3.00;2.77;;;19.00;74.10;;;;;;5070707;28;20517;-76
2024/02/17 07:48:09;;;;;;;2.57;2.37;;;19.00;73.50;;;;;;5067690;28;20460;-77
2024/02/17 07:50:38;;;;;;;2.53;2.40;;;19.00;73.70;;;;;;5065543;28;20500;-77
2024/02/17 07:53:07;;;;;;;3.67;2.43;;;19.00;73.60;;;;;;5060058;28;20438;-77
2024/02/17 07:55:35;;;;;;;2.40;2.23;;;19.00;73.50;;;;;;5070673;28;20478;-76
2024/02/17 07:58:05;;;;;;;2.37;2.27;;;19.10;73.60;;;;;;5070614;28;20454;-77
2024/02/17 08:00:33;;;;;;;2.83;2.63;;;19.10;73.30;;;;;;5070805;28;20469;-76
2024/02/17 08:03:02;;;;;;;3.33;2.50;;;19.10;73.40;;;;;;5070287;28;20491;-75
2024/02/17 08:05:31;;;;;;;2.47;2.33;;;19.10;73.20;;;;;;5063411;28;20438;-74
2024/02/17 08:07:59;;;;;;;2.50;2.30;;;19.20;73.30;;;;;;5071077;28;20464;-75
2024/02/17 08:10:32;;;;;;;2.63;2.43;;;19.20;73.10;;;;;;5071070;28;20474;-75
2024/02/17 08:13:00;;;;;;;3.10;2.27;;;19.20;73.00;;;;;;5070731;28;20468;-75
2024/02/17 08:15:29;;;;;;;2.17;2.03;;;19.20;73.00;;;;;;5062962;28;20462;-75
2024/02/17 08:18:01;;;;;;;2.17;2.00;;;19.30;73.00;;;;;;5070200;28;20479;-75
2024/02/17 08:20:31;;;;;;;2.53;2.33;;;19.30;72.80;;;;;;5061656;28;20452;-76
2024/02/17 08:22:59;;;;;;;3.00;2.70;;;19.30;73.10;;;;;;5059723;28;20820;-76
2024/02/17 08:25:27;;;;;;;3.13;2.13;;;19.40;73.20;;;;;;5068685;28;20434;-76
2024/02/17 08:27:57;;;;;;;2.40;2.20;;;19.50;73.10;;;;;;5066844;28;20465;-74
2024/02/17 08:30:25;;;;;;;2.03;1.90;;;19.50;73.60;;;;;;5060310;28;20446;-75
2024/02/17 08:32:56;;;;;;;2.37;2.23;;;19.60;73.30;;;;;;5062788;28;20521;-76
2024/02/17 08:35:25;;;;;;;2.20;2.10;;;19.60;73.40;;;;;;5064909;28;20448;-76
2024/02/17 08:37:53;;;;;;;2.17;2.07;;;19.70;73.40;;;;;;5069957;28;20472;-76
2024/02/17 08:40:22;;;;;;;3.10;2.33;;;19.70;74.00;;;;;;5066032;28;21064;-77
2024/02/17 08:42:50;;;;;;;2.10;2.00;;;19.80;74.10;;;;;;5070781;28;20501;-77
2024/02/17 08:45:20;;;;;;;2.47;2.33;;;19.90;74.10;;;;;;5065722;28;20438;-76
2024/02/17 08:47:48;;;;;;;1.80;1.70;;;19.90;74.00;;;;;;5068876;28;20507;-77
2024/02/17 08:50:18;;;;;;;2.30;2.17;;;20.00;73.80;;;;;;5073870;28;20528;-79
2024/02/17 08:52:46;;;;;;;1.90;1.80;;;20.00;73.70;;;;;;5068126;28;20425;-77
2024/02/17 08:55:14;;;;;;;1.90;1.70;;;20.00;73.90;;;;;;5071790;28;20505;-76
2024/02/17 08:57:42;;;;;;;2.40;1.53;;;20.00;73.80;;;;;;5065331;28;21007;-77
2024/02/17 09:00:12;;;;;;;1.83;1.73;;;20.00;73.90;;;;;;5073653;28;20442;-77
2024/02/17 09:02:41;;;;;;;1.87;1.77;;;20.10;74.00;;;;;;5073700;28;20473;-78
2024/02/17 09:05:09;;;;;;;1.93;1.80;;;20.10;74.00;;;;;;5072584;28;20512;-76
2024/02/17 09:07:37;;;;;;;1.93;1.83;;;20.10;73.60;;;;;;5066314;28;20465;-77
2024/02/17 09:10:08;;;;;;;1.93;1.83;;;20.20;74.00;;;;;;5065311;28;20499;-76
2024/02/17 09:12:36;;;;;;;1.80;1.70;;;20.20;74.00;;;;;;5069377;28;20478;-76
2024/02/17 09:15:06;;;;;;;2.27;2.10;;;20.30;74.10;;;;;;5062957;28;20552;-78
2024/02/17 09:17:34;;;;;;;1.87;1.77;;;20.40;74.50;;;;;;5068697;28;20472;-77
2024/02/17 09:20:04;;;;;;;1.87;1.77;;;20.50;74.60;;;;;;5073259;28;20441;-78
2024/02/17 09:22:31;;;;;;;2.03;1.93;;;20.50;74.60;;;;;;5073274;28;20436;-77
2024/02/17 09:25:00;;;;;;;1.97;1.87;;;20.50;74.90;;;;;;5074162;28;20473;-77
2024/02/17 09:27:28;;;;;;;1.87;1.77;;;20.50;74.90;;;;;;5073293;28;20461;-77
2024/02/17 09:29:56;;;;;;;1.80;1.70;;;20.50;74.80;;;;;;5073735;28;20449;-76
2024/02/17 09:32:24;;;;;;;2.20;1.80;;;20.60;74.80;;;;;;5079794;28;20441;-78
2024/02/17 09:34:54;;;;;;;1.73;1.63;;;20.60;74.60;;;;;;5071464;28;20463;-77
2024/02/17 09:37:23;;;;;;;2.00;1.90;;;20.60;74.80;;;;;;5080250;28;20560;-75
2024/02/17 09:39:51;;;;;;;1.97;1.87;;;20.60;74.30;;;;;;5064112;28;20450;-77
2024/02/17 09:42:19;;;;;;;2.13;2.00;;;20.60;74.60;;;;;;5072706;28;20968;-77
2024/02/17 09:44:48;;;;;;;1.90;1.80;;;20.60;74.40;;;;;;5073369;28;20434;-77
2024/02/17 09:47:16;;;;;;;1.97;1.87;;;20.60;74.30;;;;;;5072958;28;20972;-79
2024/02/17 09:49:46;;;;;;;2.83;1.67;;;20.60;74.40;;;;;;5070123;28;20544;-76
2024/02/17 09:52:16;;;;;;;2.13;1.93;;;20.70;74.40;;;;;;5072578;28;20465;-77
2024/02/17 09:54:46;;;;;;;2.10;1.70;;;20.90;74.90;;;;;;5072745;28;20504;-78
2024/02/17 09:57:15;;;;;;;2.00;1.90;;;21.00;74.20;;;;;;5071742;28;20996;-77
2024/02/17 09:59:43;;;;;;;1.70;1.60;;;21.00;74.10;;;;;;5072310;28;20487;-76
2024/02/17 10:02:11;;;;;;;1.63;1.53;;;21.00;74.10;;;;;;5068579;28;20469;-77
2024/02/17 10:04:53;;;;;;;3.00;1.60;;;21.00;74.10;;;;;;5072760;28;20491;-79
2024/02/17 10:07:21;;;;;;;2.00;1.67;;;21.00;74.10;;;;;;5068291;28;20519;-78
2024/02/17 10:09:51;;;;;;;4.23;2.10;;;21.00;73.80;;;;;;5072400;28;20416;-78
2024/02/17 10:12:19;;;;;;;2.53;1.90;;;21.00;73.70;;;;;;5070539;28;20496;-79
2024/02/17 10:14:51;;;;;;;1.80;1.70;;;21.10;74.10;;;;;;5068545;28;20445;-78
2024/02/17 10:17:19;;;;;;;1.67;1.57;;;21.10;74.10;;;;;;5058163;28;20500;-77
2024/02/17 10:19:47;;;;;;;1.77;1.33;;;21.30;74.80;;;;;;5067799;28;21018;-78
2024/02/17 10:22:16;;;;;;;2.07;1.63;;;21.40;74.50;;;;;;5067346;28;20450;-78
2024/02/17 10:24:44;;;;;;;2.13;1.90;;;21.50;74.60;;;;;;5064272;28;20445;-79
2024/02/17 10:27:13;;;;;;;1.53;1.43;;;21.60;74.40;;;;;;5065752;28;20549;-77
2024/02/17 10:29:42;;;;;;;6.63;1.80;;;21.70;74.30;;;;;;5071886;28;20452;-78
2024/02/17 10:32:11;;;;;;;1.77;1.53;;;21.70;74.30;;;;;;5064544;28;20450;-78
2024/02/17 10:34:40;;;;;;;1.70;1.50;;;21.90;74.40;;;;;;5070215;28;20477;-78
2024/02/17 10:37:09;;;;;;;1.90;1.80;;;21.90;74.30;;;;;;5070994;28;20474;-78
2024/02/17 10:39:37;;;;;;;2.50;2.17;;;22.00;74.30;;;;;;5064669;28;20437;-76
2024/02/17 10:42:05;;;;;;;2.23;2.03;;;22.30;75.30;;;;;;5068987;28;20442;-76
2024/02/17 10:44:35;;;;;;;1.67;1.57;;;22.60;75.60;;;;;;5069515;28;20446;-77
2024/02/17 10:47:03;;;;;;;1.73;1.57;;;22.90;74.50;;;;;;5066989;28;20532;-76
2024/02/17 10:49:36;;;;;;;1.67;1.47;;;22.90;74.00;;;;;;5070528;28;20468;-77
2024/02/17 10:52:05;;;;;;;1.90;1.77;;;22.90;73.20;;;;;;5071238;28;20450;-77
2024/02/17 10:54:38;;;;;;;2.57;1.67;;;22.90;73.30;;;;;;5071200;28;20446;-77
2024/02/17 10:57:06;;;;;;;4.50;1.80;;;22.90;73.60;;;;;;5070700;28;20477;-77
2024/02/17 10:59:35;;;;;;;1.50;1.43;;;23.00;74.00;;;;;;5063231;28;20437;-77
2024/02/17 11:02:04;;;;;;;1.60;1.50;;;23.10;73.90;;;;;;5070457;28;20575;-77
2024/02/17 11:04:32;;;;;;;3.10;1.70;;;23.20;73.50;;;;;;5063752;28;20425;-79
2024/02/17 11:07:00;;;;;;;3.37;1.80;;;23.30;73.20;;;;;;5064824;28;20468;-78
2024/02/17 11:09:28;;;;;;;1.77;1.50;;;23.40;73.50;;;;;;5070210;28;20445;-78
2024/02/17 11:11:57;;;;;;;1.60;1.50;;;23.50;72.80;;;;;;5069647;28;20457;-77
2024/02/17 11:14:43;;;;;;;1.90;1.50;;;23.50;72.40;;;;;;5069486;28;20495;-78
2024/02/17 11:17:11;;;;;;;2.50;1.63;;;23.60;72.90;;;;;;5066307;28;20501;-77
2024/02/17 11:19:39;;;;;;;2.27;1.60;;;23.90;73.00;;;;;;5066261;28;20534;-76
2024/02/17 11:22:11;;;;;;;2.23;1.87;;;24.20;72.90;;;;;;5059352;28;20451;-77
2024/02/17 11:24:39;;;;;;;1.57;1.33;;;24.40;71.80;;;;;;5070382;28;20459;-77
2024/02/17 11:27:08;;;;;;;1.57;1.47;;;24.60;70.70;;;;;;5064071;28;20516;-77
2024/02/17 11:29:36;;;;;;;1.83;1.57;;;25.00;72.00;;;;;;5064232;28;20453;-77
2024/02/17 11:32:07;;;;;;;4.93;1.90;;;25.40;68.30;;;;;;5074927;28;20415;-79
2024/02/17 11:34:35;;;;;;;7.93;3.50;;;25.20;67.20;;;;;;5072118;28;20477;-79
2024/02/17 11:37:03;;;;;;;5.93;2.30;;;25.20;67.30;;;;;;5073560;28;20444;-78
2024/02/17 11:39:31;;;;;;;5.97;2.37;;;25.30;67.90;;;;;;5068290;28;20412;-79
2024/02/17 11:42:00;;;;;;;10.17;3.20;;;25.30;67.30;;;;;;5075433;28;21275;-79
2024/02/17 11:44:28;;;;;;;5.90;2.60;;;25.20;66.80;;;;;;5068565;28;20409;-79
2024/02/17 11:46:56;;;;;;;11.47;2.30;;;25.30;66.50;;;;;;5069289;28;20436;-78
2024/02/17 11:49:26;;;;;;;7.23;2.37;;;25.30;66.10;;;;;;5074015;28;20416;-79
2024/02/17 11:51:54;;;;;;;4.07;2.17;;;25.70;64.70;;;;;;5071082;28;20408;-79
2024/02/17 11:54:22;;;;;;;11.20;2.20;;;26.00;66.10;;;;;;5066809;28;20445;-78
2024/02/17 11:56:50;;;;;;;7.57;2.10;;;26.10;64.00;;;;;;5067823;28;20444;-78
2024/02/17 11:59:20;;;;;;;9.17;2.37;;;25.90;62.60;;;;;;5078286;28;20527;-79
2024/02/17 12:01:50;;;;;;;4.80;2.17;;;25.70;63.00;;;;;;5079030;28;20410;-79
2024/02/17 12:04:18;;;;;;;6.00;2.23;;;25.50;63.30;;;;;;5074781;28;20454;-79
2024/02/17 12:06:49;;;;;;;13.27;2.10;;;25.40;63.50;;;;;;5068619;28;20442;-79
2024/02/17 12:09:17;;;;;;;7.40;2.47;;;25.30;64.00;;;;;;5070565;28;20414;-79
2024/02/17 12:11:45;;;;;;;3.63;2.00;;;25.20;63.80;;;;;;5074737;28;20438;-78
2024/02/17 12:14:16;;;;;;;5.10;2.10;;;25.20;64.00;;;;;;5072472;28;20512;-79
2024/02/17 12:16:45;;;;;;;3.13;2.00;;;25.30;64.30;;;;;;5072814;28;20465;-78
2024/02/17 12:19:14;;;;;;;7.07;2.30;;;25.50;64.70;;;;;;5077261;28;20455;-79
2024/02/17 12:21:43;;;;;;;4.23;1.73;;;25.80;64.10;;;;;;5086084;28;20461;-79
2024/02/17 12:24:12;;;;;;;6.73;1.73;;;26.10;63.50;;;;;;5090226;28;20420;-80
2024/02/17 12:26:41;;;;;;;2.80;1.80;;;26.50;62.70;;;;;;5076616;28;20496;-79
2024/02/17 12:29:15;;;;;;;6.43;2.10;;;26.70;60.90;;;;;;5082474;28;20445;-79
2024/02/17 12:31:46;;;;;;;5.13;2.13;;;26.50;59.70;;;;;;5078784;28;20495;-78
2024/02/17 12:34:26;;;;;;;5.40;1.83;;;26.30;59.50;;;;;;5079889;28;20438;-78
2024/02/17 12:36:54;;;;;;;5.37;2.20;;;26.10;59.40;;;;;;5066121;28;20472;-78
2024/02/17 12:39:25;;;;;;;3.50;2.10;;;25.90;59.40;;;;;;5070639;28;20416;-78
2024/02/17 12:42:00;;;;;;;8.03;2.03;;;25.80;59.90;;;;;;5072981;28;20466;-77
2024/02/17 12:44:28;;;;;;;6.63;1.57;;;25.90;60.30;;;;;;5072862;28;20424;-77
2024/02/17 12:46:56;;;;;;;7.40;1.67;;;26.00;60.20;;;;;;5076401;28;20457;-79
2024/02/17 12:49:25;;;;;;;5.20;1.97;;;26.10;61.10;;;;;;5070340;28;20446;-77
2024/02/17 12:51:53;;;;;;;4.37;2.40;;;26.40;60.80;;;;;;5068228;28;20420;-78
2024/02/17 12:54:23;;;;;;;4.60;1.50;;;26.60;59.50;;;;;;5072628;28;20420;-77
2024/02/17 12:56:54;;;;;;;8.83;2.00;;;26.70;59.40;;;;;;5068624;28;20492;-76